Tuesday, October 16, 2018, 6:43 AM EDT
Back to Local

KITH, Ithaca, Ithaca Tompkins Regional Airport

Location: Ithaca, NY, United States Lat: 42.491
Local Time: 6:43 AM EDT (10:43 GMT) Lon: -76.458
Time Zone: US/Eastern Elev: 1099 ft

Show me the last for .
Show Decoded

2018-10-16 06:30 METAR KITH 161030Z 25005KT 10SM BKN041 03/M02 A3015 RMK AO2 =
2018-10-16 05:56 METAR KITH 160956Z AUTO 27011KT 10SM BKN041 03/M03 A3014 RMK AO2 SLP210
                 T00281033 =
2018-10-16 04:56 METAR KITH 160856Z AUTO 27008KT 10SM CLR 02/M03 A3013 RMK AO2 SLP207 T00171028
                 53004 =
2018-10-16 03:56 METAR KITH 160756Z AUTO 27009KT 10SM CLR 03/M03 A3011 RMK AO2 SLP199 T00281028 =
2018-10-16 02:56 METAR KITH 160656Z AUTO 27010KT 10SM CLR 04/M03 A3011 RMK AO2 SLP200 T00391028 =
2018-10-16 01:56 METAR KITH 160556Z AUTO 30009KT 10SM BKN050 04/M03 A3011 RMK AO2 PK WND
                 27026/0517 SLP201 60000 T00391028 10122 20039 51027 =
2018-10-16 00:56 METAR KITH 160456Z AUTO 29022G29KT 10SM SCT044 05/M03 A3009 RMK AO2 PK WND
                 29029/0454 SLP194 T00501028 401560050 =
2018-10-15 23:56 METAR KITH 160356Z AUTO 31014G25KT 10SM BKN043 OVC050 07/01 A3007 RMK AO2 PK WND
                 29028/0329 SLP185 T00720006 =
2018-10-15 22:56 METAR KITH 160256Z AUTO 30020G25KT 10SM OVC040 08/02 A3003 RMK AO2 PK WND
                 29029/0228 RAE10 SLP172 P0000 60000 T00780017 53044 =
2018-10-15 22:35 METAR KITH 160235Z AUTO 31015G29KT 10SM FEW029 OVC036 08/03 A3002 RMK AO2 PK WND
                 29029/0228 RAE10 P0000 =
2018-10-15 21:56 METAR KITH 160156Z 30016G21KT 10SM -RA FEW019 OVC025 09/06 A2998 RMK AO2 RAB39
                 SLP154 P0000 T00890061 =
2018-10-15 20:56 METAR KITH 160056Z 28017G22KT 10SM BKN028 OVC041 11/08 A2993 RMK AO2 SLP136
                 T01110078 =
2018-10-15 19:56 METAR KITH 152356Z 28014G20KT 10SM BKN025 OVC040 12/09 A2990 RMK AO2 RAE05
                 SLP126 P0000 60007 T01220094 10156 20122 53027 =
2018-10-15 18:56 METAR KITH 152256Z 28007KT 10SM -RA BKN012 OVC025 12/12 A2986 RMK AO2 RAB11
                 SLP114 P0001 T01220117 =
2018-10-15 17:56 METAR KITH 152156Z 26006KT 8SM BKN009 OVC030 14/14 A2983 RMK AO2 RAE56 SLP101
                 P0003 T01440139 =
2018-10-15 16:56 METAR KITH 152056Z 28007KT 3SM -RA BR BKN006 OVC014 15/14 A2981 RMK AO2 RAB07
                 SLP097 P0003 60003 T01500144 55009 =
2018-10-15 16:42 METAR KITH 152042Z 24006KT 3SM RA BR BKN006 OVC011 15/14 A2981 RMK AO2 RAB07
                 P0001 =
2018-10-15 16:20 METAR KITH 152020Z 20008KT 6SM -RA BR BKN011 OVC015 15/14 A2980 RMK AO2 RAB07
                 P0000 =
2018-10-15 15:56 METAR KITH 151956Z 20008KT 10SM OVC017 16/14 A2980 RMK AO2 SLP094 T01560139 =
2018-10-15 14:56 METAR KITH 151856Z 18007KT 10SM OVC015 16/13 A2982 RMK AO2 SLP099 T01560133 =
2018-10-15 13:56 METAR KITH 151756Z 17011KT 10SM BKN016 OVC023 15/13 A2984 RMK AO2 SLP108
                 T01500128 10150 20089 58025 =
2018-10-15 12:56 METAR KITH 151656Z 18008G14KT 10SM OVC012 14/12 A2987 RMK AO2 SLP118 T01440122 =
2018-10-15 11:56 METAR KITH 151556Z 15006KT 10SM OVC009 12/11 A2991 RMK AO2 SLP131 T01220111 =
2018-10-15 10:56 METAR KITH 151456Z 16009KT 10SM OVC009 12/11 A2992 RMK AO2 SLP134 T01170106
                 58016 =
2018-10-15 09:56 METAR KITH 151356Z 16011KT 10SM OVC009 11/09 A2994 RMK AO2 SLP142 T01060094 =
2018-10-15 08:56 METAR KITH 151256Z 16012KT 10SM BKN009 OVC040 10/09 A2996 RMK AO2 SLP149
                 T01000089 =
2018-10-15 07:56 METAR KITH 151156Z 16011KT 8SM BKN009 OVC018 09/08 A2997 RMK AO2 RAB16E32 SLP152
                 P0000 60002 70002 T00890078 10089 20061 58022 =
2018-10-15 06:56 METAR KITH 151056Z 15011KT 10SM BKN008 OVC018 08/08 A2999 RMK AO2 RAE37 SLP161
                 P0001 T00830078 =

Support USWX by starting your Amazon purchase here.